sensor_id;sensor_type;location;lat;lon;timestamp;pressure;altitude;pressure_sealevel;temperature;humidity
13080;BME280;6606;49.154;9.280;2023-04-27T00:02:20;99790.09;;;5.49;100.00
13080;BME280;6606;49.154;9.280;2023-04-27T00:05:02;99792.81;;;5.46;100.00
13080;BME280;6606;49.154;9.280;2023-04-27T00:07:45;99789.44;;;5.41;100.00
13080;BME280;6606;49.154;9.280;2023-04-27T00:10:27;99783.66;;;5.28;100.00
13080;BME280;6606;49.154;9.280;2023-04-27T00:13:11;99774.88;;;5.29;100.00
13080;BME280;6606;49.154;9.280;2023-04-27T00:15:53;99785.44;;;5.26;100.00
13080;BME280;6606;49.154;9.280;2023-04-27T00:18:35;99785.63;;;5.20;100.00
13080;BME280;6606;49.154;9.280;2023-04-27T00:21:17;99785.78;;;5.14;100.00
13080;BME280;6606;49.154;9.280;2023-04-27T00:23:59;99780.63;;;5.11;100.00
13080;BME280;6606;49.154;9.280;2023-04-27T00:26:41;99771.06;;;5.09;100.00
13080;BME280;6606;49.154;9.280;2023-04-27T00:29:24;99772.88;;;5.06;100.00
13080;BME280;6606;49.154;9.280;2023-04-27T00:32:06;99770.25;;;5.05;100.00
13080;BME280;6606;49.154;9.280;2023-04-27T00:34:48;99771.19;;;5.02;100.00
13080;BME280;6606;49.154;9.280;2023-04-27T00:37:30;99770.44;;;4.99;100.00
13080;BME280;6606;49.154;9.280;2023-04-27T00:40:12;99766.16;;;4.95;100.00
13080;BME280;6606;49.154;9.280;2023-04-27T00:42:54;99770.69;;;4.90;100.00
13080;BME280;6606;49.154;9.280;2023-04-27T00:45:41;99768.16;;;4.85;100.00
13080;BME280;6606;49.154;9.280;2023-04-27T00:48:23;99767.41;;;4.80;100.00
13080;BME280;6606;49.154;9.280;2023-04-27T00:51:05;99771.06;;;4.74;100.00
13080;BME280;6606;49.154;9.280;2023-04-27T00:53:48;99759.72;;;4.72;100.00
13080;BME280;6606;49.154;9.280;2023-04-27T00:56:32;99760.69;;;4.68;100.00
13080;BME280;6606;49.154;9.280;2023-04-27T00:59:15;99762.50;;;4.66;100.00
13080;BME280;6606;49.154;9.280;2023-04-27T01:01:59;99760.84;;;4.62;100.00
13080;BME280;6606;49.154;9.280;2023-04-27T01:04:42;99760.94;;;4.59;100.00
13080;BME280;6606;49.154;9.280;2023-04-27T01:07:27;99762.78;;;4.55;100.00
13080;BME280;6606;49.154;9.280;2023-04-27T01:10:09;99766.38;;;4.50;100.00
13080;BME280;6606;49.154;9.280;2023-04-27T01:12:51;99770.88;;;4.46;100.00
13080;BME280;6606;49.154;9.280;2023-04-27T01:15:32;99774.47;;;4.42;100.00
13080;BME280;6606;49.154;9.280;2023-04-27T01:18:16;99786.84;;;4.35;100.00
13080;BME280;6606;49.154;9.280;2023-04-27T01:20:58;99778.22;;;4.30;100.00
13080;BME280;6606;49.154;9.280;2023-04-27T01:23:42;99774.78;;;4.28;100.00
13080;BME280;6606;49.154;9.280;2023-04-27T01:26:24;99783.72;;;4.19;100.00
13080;BME280;6606;49.154;9.280;2023-04-27T01:29:06;99785.56;;;4.16;100.00
13080;BME280;6606;49.154;9.280;2023-04-27T01:31:48;99783.75;;;4.18;100.00
13080;BME280;6606;49.154;9.280;2023-04-27T01:34:30;99777.88;;;4.07;100.00
13080;BME280;6606;49.154;9.280;2023-04-27T01:37:12;99784.78;;;4.11;100.00
13080;BME280;6606;49.154;9.280;2023-04-27T01:39:58;99775.22;;;4.08;100.00
13080;BME280;6606;49.154;9.280;2023-04-27T01:42:42;99777.94;;;4.04;100.00
13080;BME280;6606;49.154;9.280;2023-04-27T01:45:24;99783.13;;;4.07;100.00
13080;BME280;6606;49.154;9.280;2023-04-27T01:48:06;99784.09;;;4.03;100.00
13080;BME280;6606;49.154;9.280;2023-04-27T01:50:47;99773.63;;;4.01;100.00
13080;BME280;6606;49.154;9.280;2023-04-27T01:53:29;99778.94;;;4.00;100.00
13080;BME280;6606;49.154;9.280;2023-04-27T01:56:12;99779.72;;;4.02;100.00
13080;BME280;6606;49.154;9.280;2023-04-27T01:58:54;99784.19;;;3.98;100.00
13080;BME280;6606;49.154;9.280;2023-04-27T02:01:36;99783.41;;;3.94;100.00
13080;BME280;6606;49.154;9.280;2023-04-27T02:04:18;99791.31;;;3.91;100.00
13080;BME280;6606;49.154;9.280;2023-04-27T02:07:00;99791.44;;;3.87;100.00
13080;BME280;6606;49.154;9.280;2023-04-27T02:09:42;99798.41;;;3.86;100.00
13080;BME280;6606;49.154;9.280;2023-04-27T02:12:28;99788.91;;;3.82;100.00
13080;BME280;6606;49.154;9.280;2023-04-27T02:15:10;99794.16;;;3.82;100.00
13080;BME280;6606;49.154;9.280;2023-04-27T02:17:52;99802.06;;;3.79;100.00
13080;BME280;6606;49.154;9.280;2023-04-27T02:20:34;99799.53;;;3.76;100.00
13080;BME280;6606;49.154;9.280;2023-04-27T02:23:16;99797.84;;;3.72;100.00
13080;BME280;6606;49.154;9.280;2023-04-27T02:25:57;99786.50;;;3.71;100.00
13080;BME280;6606;49.154;9.280;2023-04-27T02:28:40;99797.00;;;3.71;100.00
13080;BME280;6606;49.154;9.280;2023-04-27T02:31:23;99803.22;;;3.66;100.00
13080;BME280;6606;49.154;9.280;2023-04-27T02:34:05;99806.69;;;3.68;100.00
13080;BME280;6606;49.154;9.280;2023-04-27T02:36:46;99804.91;;;3.68;100.00
13080;BME280;6606;49.154;9.280;2023-04-27T02:39:28;99804.09;;;3.66;100.00
13080;BME280;6606;49.154;9.280;2023-04-27T02:42:10;99803.09;;;3.70;100.00
13080;BME280;6606;49.154;9.280;2023-04-27T02:44:53;99797.69;;;3.81;100.00
13080;BME280;6606;49.154;9.280;2023-04-27T02:47:35;99800.94;;;3.92;100.00
13080;BME280;6606;49.154;9.280;2023-04-27T02:50:17;99798.91;;;4.05;100.00
13080;BME280;6606;49.154;9.280;2023-04-27T02:52:59;99812.56;;;4.21;100.00
13080;BME280;6606;49.154;9.280;2023-04-27T02:55:45;99814.00;;;4.34;100.00
13080;BME280;6606;49.154;9.280;2023-04-27T02:58:28;99805.75;;;4.50;100.00
13080;BME280;6606;49.154;9.280;2023-04-27T03:01:11;99811.84;;;4.52;100.00
13080;BME280;6606;49.154;9.280;2023-04-27T03:03:54;99817.78;;;4.60;100.00
13080;BME280;6606;49.154;9.280;2023-04-27T03:06:38;99813.31;;;4.63;100.00
13080;BME280;6606;49.154;9.280;2023-04-27T03:09:20;99812.31;;;4.69;100.00
13080;BME280;6606;49.154;9.280;2023-04-27T03:12:03;99807.94;;;4.68;100.00
13080;BME280;6606;49.154;9.280;2023-04-27T03:14:45;99805.94;;;4.79;100.00
13080;BME280;6606;49.154;9.280;2023-04-27T03:17:28;99798.75;;;4.88;100.00
13080;BME280;6606;49.154;9.280;2023-04-27T03:20:11;99810.13;;;4.87;100.00
13080;BME280;6606;49.154;9.280;2023-04-27T03:22:53;99812.63;;;4.93;100.00
13080;BME280;6606;49.154;9.280;2023-04-27T03:25:34;99809.63;;;5.06;100.00
13080;BME280;6606;49.154;9.280;2023-04-27T03:28:16;99813.03;;;5.10;100.00
13080;BME280;6606;49.154;9.280;2023-04-27T03:30:58;99805.88;;;5.17;100.00
13080;BME280;6606;49.154;9.280;2023-04-27T03:33:42;99813.50;;;5.26;100.00
13080;BME280;6606;49.154;9.280;2023-04-27T03:36:24;99806.41;;;5.29;100.00
13080;BME280;6606;49.154;9.280;2023-04-27T03:39:06;99812.56;;;5.28;100.00
13080;BME280;6606;49.154;9.280;2023-04-27T03:41:48;99813.22;;;5.37;100.00
13080;BME280;6606;49.154;9.280;2023-04-27T03:44:30;99807.75;;;5.44;100.00
13080;BME280;6606;49.154;9.280;2023-04-27T03:47:13;99804.28;;;5.44;100.00
13080;BME280;6606;49.154;9.280;2023-04-27T03:50:30;99799.09;;;5.41;100.00
13080;BME280;6606;49.154;9.280;2023-04-27T03:53:12;99803.31;;;5.48;100.00
13080;BME280;6606;49.154;9.280;2023-04-27T03:55:54;99807.47;;;5.55;100.00
13080;BME280;6606;49.154;9.280;2023-04-27T03:58:36;99805.66;;;5.57;100.00
13080;BME280;6606;49.154;9.280;2023-04-27T04:01:33;99811.78;;;5.58;100.00
13080;BME280;6606;49.154;9.280;2023-04-27T04:04:15;99806.59;;;5.55;100.00
13080;BME280;6606;49.154;9.280;2023-04-27T04:06:58;99799.63;;;5.54;100.00
13080;BME280;6606;49.154;9.280;2023-04-27T04:09:41;99811.44;;;5.70;100.00
13080;BME280;6606;49.154;9.280;2023-04-27T04:12:25;99817.47;;;5.73;100.00
13080;BME280;6606;49.154;9.280;2023-04-27T04:15:07;99812.06;;;5.80;100.00
13080;BME280;6606;49.154;9.280;2023-04-27T04:17:49;99804.06;;;5.83;100.00
13080;BME280;6606;49.154;9.280;2023-04-27T04:20:33;99812.00;;;5.81;100.00
13080;BME280;6606;49.154;9.280;2023-04-27T04:23:16;99818.94;;;5.84;100.00
13080;BME280;6606;49.154;9.280;2023-04-27T04:25:58;99818.94;;;5.84;100.00
13080;BME280;6606;49.154;9.280;2023-04-27T04:28:45;99819.03;;;5.81;100.00
13080;BME280;6606;49.154;9.280;2023-04-27T04:31:27;99815.13;;;5.96;100.00
13080;BME280;6606;49.154;9.280;2023-04-27T04:34:13;99821.28;;;5.94;100.00
13080;BME280;6606;49.154;9.280;2023-04-27T04:36:55;99820.25;;;6.00;100.00
13080;BME280;6606;49.154;9.280;2023-04-27T04:39:39;99814.50;;;6.17;100.00
13080;BME280;6606;49.154;9.280;2023-04-27T04:42:23;99812.50;;;6.25;100.00
13080;BME280;6606;49.154;9.280;2023-04-27T04:45:06;99819.34;;;6.31;100.00
13080;BME280;6606;49.154;9.280;2023-04-27T04:47:49;99816.56;;;6.35;100.00
13080;BME280;6606;49.154;9.280;2023-04-27T04:50:31;99818.47;;;6.30;100.00
13080;BME280;6606;49.154;9.280;2023-04-27T04:53:13;99822.41;;;6.45;100.00
13080;BME280;6606;49.154;9.280;2023-04-27T04:55:57;99821.16;;;6.57;100.00
13080;BME280;6606;49.154;9.280;2023-04-27T04:58:40;99829.72;;;6.64;100.00
13080;BME280;6606;49.154;9.280;2023-04-27T05:01:21;99831.03;;;6.78;100.00
13080;BME280;6606;49.154;9.280;2023-04-27T05:04:04;99832.56;;;6.86;100.00
13080;BME280;6606;49.154;9.280;2023-04-27T05:06:45;99828.97;;;6.88;100.00
13080;BME280;6606;49.154;9.280;2023-04-27T05:09:28;99829.56;;;6.96;100.00
13080;BME280;6606;49.154;9.280;2023-04-27T05:12:11;99835.53;;;7.01;100.00
13080;BME280;6606;49.154;9.280;2023-04-27T05:14:53;99837.13;;;7.07;100.00
13080;BME280;6606;49.154;9.280;2023-04-27T05:17:34;99834.50;;;7.05;100.00
13080;BME280;6606;49.154;9.280;2023-04-27T05:20:16;99838.06;;;7.04;100.00
13080;BME280;6606;49.154;9.280;2023-04-27T05:22:58;99832.06;;;7.26;100.00
13080;BME280;6606;49.154;9.280;2023-04-27T05:25:40;99831.44;;;7.44;100.00
13080;BME280;6606;49.154;9.280;2023-04-27T05:45:50;99838.63;;;7.89;100.00
13080;BME280;6606;49.154;9.280;2023-04-27T05:48:32;99847.53;;;7.87;100.00
13080;BME280;6606;49.154;9.280;2023-04-27T05:51:15;99843.28;;;8.06;100.00
13080;BME280;6606;49.154;9.280;2023-04-27T05:53:57;99846.19;;;8.22;100.00
13080;BME280;6606;49.154;9.280;2023-04-27T05:56:41;99845.31;;;8.47;100.00
13080;BME280;6606;49.154;9.280;2023-04-27T05:59:43;99852.47;;;8.43;100.00
13080;BME280;6606;49.154;9.280;2023-04-27T06:15:39;99859.56;;;8.65;100.00
13080;BME280;6606;49.154;9.280;2023-04-27T06:18:21;99859.38;;;8.69;100.00
13080;BME280;6606;49.154;9.280;2023-04-27T06:21:03;99857.53;;;8.93;100.00
13080;BME280;6606;49.154;9.280;2023-04-27T06:23:46;99860.06;;;9.18;100.00
13080;BME280;6606;49.154;9.280;2023-04-27T06:26:28;99862.06;;;9.54;100.00
13080;BME280;6606;49.154;9.280;2023-04-27T06:33:26;99864.84;;;9.72;100.00
13080;BME280;6606;49.154;9.280;2023-04-27T06:36:08;99856.31;;;10.04;100.00
13080;BME280;6606;49.154;9.280;2023-04-27T06:38:50;99863.38;;;10.24;100.00
13080;BME280;6606;49.154;9.280;2023-04-27T06:41:35;99872.41;;;10.39;100.00
13080;BME280;6606;49.154;9.280;2023-04-27T06:44:16;99864.31;;;10.42;100.00
13080;BME280;6606;49.154;9.280;2023-04-27T06:47:01;99875.44;;;10.69;100.00
13080;BME280;6606;49.154;9.280;2023-04-27T06:49:44;99880.13;;;10.82;100.00
13080;BME280;6606;49.154;9.280;2023-04-27T06:52:26;99877.41;;;11.02;100.00
13080;BME280;6606;49.154;9.280;2023-04-27T06:55:08;99877.81;;;11.29;100.00
13080;BME280;6606;49.154;9.280;2023-04-27T06:57:50;99881.41;;;11.45;100.00
13080;BME280;6606;49.154;9.280;2023-04-27T07:02:23;99878.16;;;11.75;100.00
13080;BME280;6606;49.154;9.280;2023-04-27T07:13:33;99882.75;;;12.56;100.00
13080;BME280;6606;49.154;9.280;2023-04-27T07:20:36;99876.88;;;12.96;100.00
13080;BME280;6606;49.154;9.280;2023-04-27T07:23:18;99872.84;;;13.21;100.00
13080;BME280;6606;49.154;9.280;2023-04-27T07:26:00;99874.56;;;13.82;100.00
13080;BME280;6606;49.154;9.280;2023-04-27T07:28:43;99873.25;;;13.45;100.00
13080;BME280;6606;49.154;9.280;2023-04-27T07:31:26;99882.03;;;13.61;100.00
13080;BME280;6606;49.154;9.280;2023-04-27T07:34:08;99870.03;;;14.27;99.34
13080;BME280;6606;49.154;9.280;2023-04-27T07:36:50;99881.38;;;14.87;93.10
13080;BME280;6606;49.154;9.280;2023-04-27T07:39:33;99866.34;;;15.13;96.23
13080;BME280;6606;49.154;9.280;2023-04-27T07:42:16;99860.88;;;16.33;77.52
13080;BME280;6606;49.154;9.280;2023-04-27T07:44:59;99858.53;;;17.50;59.92
13080;BME280;6606;49.154;9.280;2023-04-27T07:47:40;99852.59;;;17.69;64.35
13080;BME280;6606;49.154;9.280;2023-04-27T07:58:35;99850.63;;;18.51;49.67
13080;BME280;6606;49.154;9.280;2023-04-27T08:01:19;99855.16;;;18.39;54.18
13080;BME280;6606;49.154;9.280;2023-04-27T08:04:07;99851.03;;;17.31;55.37
13080;BME280;6606;49.154;9.280;2023-04-27T08:06:49;99856.59;;;18.66;54.46
13080;BME280;6606;49.154;9.280;2023-04-27T08:09:30;99854.03;;;18.64;51.22
13080;BME280;6606;49.154;9.280;2023-04-27T08:12:12;99848.53;;;18.66;51.77
13080;BME280;6606;49.154;9.280;2023-04-27T08:14:54;99836.41;;;20.01;46.79
13080;BME280;6606;49.154;9.280;2023-04-27T08:17:37;99837.03;;;20.14;43.96
13080;BME280;6606;49.154;9.280;2023-04-27T08:20:20;99835.50;;;19.58;44.37
13080;BME280;6606;49.154;9.280;2023-04-27T08:23:02;99833.53;;;20.63;44.64
13080;BME280;6606;49.154;9.280;2023-04-27T08:25:44;99825.13;;;21.17;42.84
13080;BME280;6606;49.154;9.280;2023-04-27T08:28:26;99819.63;;;20.58;42.78
13080;BME280;6606;49.154;9.280;2023-04-27T08:31:07;99820.06;;;19.18;46.21
13080;BME280;6606;49.154;9.280;2023-04-27T08:33:50;99820.13;;;18.30;50.34
13080;BME280;6606;49.154;9.280;2023-04-27T08:36:33;99821.19;;;17.71;57.20
13080;BME280;6606;49.154;9.280;2023-04-27T08:39:16;99820.19;;;17.01;58.67
13080;BME280;6606;49.154;9.280;2023-04-27T08:41:57;99811.44;;;16.25;69.36
13080;BME280;6606;49.154;9.280;2023-04-27T08:44:39;99819.25;;;16.29;66.58
13080;BME280;6606;49.154;9.280;2023-04-27T08:47:21;99815.72;;;16.28;84.71
13080;BME280;6606;49.154;9.280;2023-04-27T08:50:06;99822.50;;;16.45;85.79
13080;BME280;6606;49.154;9.280;2023-04-27T08:56:46;99817.09;;;16.34;87.22
13080;BME280;6606;49.154;9.280;2023-04-27T08:59:28;99810.59;;;16.25;80.85
13080;BME280;6606;49.154;9.280;2023-04-27T09:02:18;99813.41;;;16.47;81.85
13080;BME280;6606;49.154;9.280;2023-04-27T09:05:01;99803.19;;;16.65;72.27
13080;BME280;6606;49.154;9.280;2023-04-27T09:16:57;99820.63;;;16.21;74.96
13080;BME280;6606;49.154;9.280;2023-04-27T09:19:39;99807.94;;;16.62;77.05
13080;BME280;6606;49.154;9.280;2023-04-27T09:22:21;99813.53;;;16.46;75.55
13080;BME280;6606;49.154;9.280;2023-04-27T09:29:41;99806.94;;;17.35;64.14
13080;BME280;6606;49.154;9.280;2023-04-27T09:32:51;99815.50;;;17.51;60.49
13080;BME280;6606;49.154;9.280;2023-04-27T09:35:33;99813.66;;;17.41;73.04
13080;BME280;6606;49.154;9.280;2023-04-27T09:38:15;99817.91;;;17.32;67.91
13080;BME280;6606;49.154;9.280;2023-04-27T09:40:58;99811.16;;;17.62;61.23
13080;BME280;6606;49.154;9.280;2023-04-27T09:43:42;99817.34;;;18.09;60.87
13080;BME280;6606;49.154;9.280;2023-04-27T09:46:25;99821.13;;;17.59;56.60
13080;BME280;6606;49.154;9.280;2023-04-27T09:49:11;99811.25;;;18.18;57.65
13080;BME280;6606;49.154;9.280;2023-04-27T09:51:54;99812.69;;;18.22;51.76
13080;BME280;6606;49.154;9.280;2023-04-27T09:54:38;99807.06;;;17.80;54.13
13080;BME280;6606;49.154;9.280;2023-04-27T09:57:27;99801.25;;;18.09;57.28
13080;BME280;6606;49.154;9.280;2023-04-27T10:00:22;99798.56;;;18.31;49.92
13080;BME280;6606;49.154;9.280;2023-04-27T10:03:15;99798.31;;;18.12;48.97
13080;BME280;6606;49.154;9.280;2023-04-27T10:06:27;99789.09;;;17.47;52.11
13080;BME280;6606;49.154;9.280;2023-04-27T10:09:19;99790.16;;;18.02;49.64
13080;BME280;6606;49.154;9.280;2023-04-27T10:12:14;99789.03;;;18.27;48.71
13080;BME280;6606;49.154;9.280;2023-04-27T10:14:57;99788.75;;;18.41;48.98
13080;BME280;6606;49.154;9.280;2023-04-27T10:17:46;99792.25;;;18.64;50.21
13080;BME280;6606;49.154;9.280;2023-04-27T10:20:30;99791.19;;;18.56;45.04
13080;BME280;6606;49.154;9.280;2023-04-27T10:23:22;99798.28;;;18.23;42.31
13080;BME280;6606;49.154;9.280;2023-04-27T10:26:06;99792.84;;;18.68;42.13
13080;BME280;6606;49.154;9.280;2023-04-27T10:28:55;99779.41;;;18.13;44.82
13080;BME280;6606;49.154;9.280;2023-04-27T10:31:42;99789.09;;;17.58;45.91
13080;BME280;6606;49.154;9.280;2023-04-27T10:34:26;99788.19;;;17.46;43.99
13080;BME280;6606;49.154;9.280;2023-04-27T10:37:09;99798.31;;;18.00;43.38
13080;BME280;6606;49.154;9.280;2023-04-27T10:40:05;99798.50;;;18.54;42.92
13080;BME280;6606;49.154;9.280;2023-04-27T10:42:49;99795.13;;;18.40;43.44
13080;BME280;6606;49.154;9.280;2023-04-27T10:45:33;99797.53;;;18.55;43.49
13080;BME280;6606;49.154;9.280;2023-04-27T10:48:15;99791.94;;;18.35;42.34
13080;BME280;6606;49.154;9.280;2023-04-27T10:50:58;99793.13;;;18.65;45.95
13080;BME280;6606;49.154;9.280;2023-04-27T10:53:42;99791.22;;;18.44;40.75
13080;BME280;6606;49.154;9.280;2023-04-27T10:56:25;99796.91;;;18.74;43.31
13080;BME280;6606;49.154;9.280;2023-04-27T10:59:07;99786.44;;;19.03;39.21
13080;BME280;6606;49.154;9.280;2023-04-27T11:01:48;99788.59;;;18.65;39.22
13080;BME280;6606;49.154;9.280;2023-04-27T11:04:35;99784.81;;;18.79;42.38
13080;BME280;6606;49.154;9.280;2023-04-27T11:07:23;99771.56;;;18.99;40.37
13080;BME280;6606;49.154;9.280;2023-04-27T11:10:07;99778.47;;;18.80;41.68
13080;BME280;6606;49.154;9.280;2023-04-27T11:12:51;99772.06;;;18.93;42.37
13080;BME280;6606;49.154;9.280;2023-04-27T11:15:41;99770.56;;;19.00;41.32
13080;BME280;6606;49.154;9.280;2023-04-27T11:18:24;99764.97;;;19.45;36.14
13080;BME280;6606;49.154;9.280;2023-04-27T11:21:08;99769.28;;;19.78;38.63
13080;BME280;6606;49.154;9.280;2023-04-27T11:23:50;99770.25;;;19.98;36.56
13080;BME280;6606;49.154;9.280;2023-04-27T11:26:32;99764.78;;;20.09;35.96
13080;BME280;6606;49.154;9.280;2023-04-27T11:29:15;99758.25;;;19.71;35.44
13080;BME280;6606;49.154;9.280;2023-04-27T11:31:57;99758.16;;;19.83;35.18
13080;BME280;6606;49.154;9.280;2023-04-27T11:34:39;99760.28;;;19.89;34.78
13080;BME280;6606;49.154;9.280;2023-04-27T11:37:29;99763.97;;;19.88;35.56
13080;BME280;6606;49.154;9.280;2023-04-27T11:40:12;99752.88;;;19.81;37.40
13080;BME280;6606;49.154;9.280;2023-04-27T11:42:58;99766.88;;;19.54;36.78
13080;BME280;6606;49.154;9.280;2023-04-27T11:45:47;99763.25;;;19.86;39.25
13080;BME280;6606;49.154;9.280;2023-04-27T11:48:29;99760.69;;;19.00;34.73
13080;BME280;6606;49.154;9.280;2023-04-27T11:51:11;99763.03;;;18.94;35.98
13080;BME280;6606;49.154;9.280;2023-04-27T11:53:53;99757.31;;;19.92;35.19
13080;BME280;6606;49.154;9.280;2023-04-27T11:56:36;99745.75;;;19.70;34.20
13080;BME280;6606;49.154;9.280;2023-04-27T11:59:19;99748.31;;;20.43;34.02
13080;BME280;6606;49.154;9.280;2023-04-27T12:02:02;99750.31;;;20.10;35.72
13080;BME280;6606;49.154;9.280;2023-04-27T12:04:44;99749.47;;;20.10;34.73
13080;BME280;6606;49.154;9.280;2023-04-27T12:07:27;99744.97;;;20.20;33.70
13080;BME280;6606;49.154;9.280;2023-04-27T12:10:09;99750.13;;;20.33;33.02
13080;BME280;6606;49.154;9.280;2023-04-27T12:12:51;99742.66;;;20.56;32.91
13080;BME280;6606;49.154;9.280;2023-04-27T12:15:32;99741.72;;;19.86;34.47
13080;BME280;6606;49.154;9.280;2023-04-27T12:18:15;99731.53;;;19.80;33.71
13080;BME280;6606;49.154;9.280;2023-04-27T12:20:57;99731.69;;;19.88;36.00
13080;BME280;6606;49.154;9.280;2023-04-27T12:23:39;99741.34;;;20.00;35.88
13080;BME280;6606;49.154;9.280;2023-04-27T12:26:21;99743.13;;;19.38;36.81
13080;BME280;6606;49.154;9.280;2023-04-27T12:29:03;99741.91;;;19.21;36.44
13080;BME280;6606;49.154;9.280;2023-04-27T12:31:44;99740.56;;;19.16;37.30
13080;BME280;6606;49.154;9.280;2023-04-27T12:34:28;99740.38;;;19.07;37.03
13080;BME280;6606;49.154;9.280;2023-04-27T12:37:10;99740.25;;;19.30;34.53
13080;BME280;6606;49.154;9.280;2023-04-27T12:39:51;99725.88;;;19.92;34.76
13080;BME280;6606;49.154;9.280;2023-04-27T12:42:37;99720.88;;;20.18;35.39
13080;BME280;6606;49.154;9.280;2023-04-27T12:45:19;99722.00;;;20.16;34.90
13080;BME280;6606;49.154;9.280;2023-04-27T12:48:01;99711.22;;;20.06;34.53
13080;BME280;6606;49.154;9.280;2023-04-27T12:50:44;99704.75;;;19.57;37.69
13080;BME280;6606;49.154;9.280;2023-04-27T12:53:27;99695.69;;;19.79;36.56
13080;BME280;6606;49.154;9.280;2023-04-27T12:56:12;99698.06;;;19.72;39.24
13080;BME280;6606;49.154;9.280;2023-04-27T12:58:54;99705.25;;;19.93;36.51
13080;BME280;6606;49.154;9.280;2023-04-27T13:01:36;99705.13;;;20.54;34.53
13080;BME280;6606;49.154;9.280;2023-04-27T13:04:18;99697.91;;;20.64;35.67
13080;BME280;6606;49.154;9.280;2023-04-27T13:07:02;99694.44;;;21.21;35.30
13080;BME280;6606;49.154;9.280;2023-04-27T13:09:44;99705.94;;;21.23;35.58
13080;BME280;6606;49.154;9.280;2023-04-27T13:12:25;99693.31;;;21.14;34.25
13080;BME280;6606;49.154;9.280;2023-04-27T13:15:11;99700.00;;;21.10;34.48
13080;BME280;6606;49.154;9.280;2023-04-27T13:17:52;99695.75;;;21.07;32.51
13080;BME280;6606;49.154;9.280;2023-04-27T13:20:35;99694.56;;;20.32;35.68
13080;BME280;6606;49.154;9.280;2023-04-27T13:23:18;99699.00;;;20.72;35.21
13080;BME280;6606;49.154;9.280;2023-04-27T13:26:00;99692.38;;;20.56;35.05
13080;BME280;6606;49.154;9.280;2023-04-27T13:28:43;99690.59;;;20.36;34.15
13080;BME280;6606;49.154;9.280;2023-04-27T13:31:25;99690.66;;;20.55;34.07
13080;BME280;6606;49.154;9.280;2023-04-27T13:34:07;99690.25;;;20.99;33.71
13080;BME280;6606;49.154;9.280;2023-04-27T13:36:49;99673.31;;;21.26;34.17
13080;BME280;6606;49.154;9.280;2023-04-27T13:39:32;99685.22;;;21.33;35.64
13080;BME280;6606;49.154;9.280;2023-04-27T13:42:14;99684.81;;;21.08;32.85
13080;BME280;6606;49.154;9.280;2023-04-27T13:44:55;99682.16;;;20.89;32.98
13080;BME280;6606;49.154;9.280;2023-04-27T13:47:38;99674.34;;;20.67;34.75
13080;BME280;6606;49.154;9.280;2023-04-27T13:50:20;99678.19;;;20.74;33.28
13080;BME280;6606;49.154;9.280;2023-04-27T13:53:01;99668.97;;;20.76;33.72
13080;BME280;6606;49.154;9.280;2023-04-27T13:55:44;99668.69;;;20.99;32.71
13080;BME280;6606;49.154;9.280;2023-04-27T13:58:27;99666.53;;;21.12;33.86
13080;BME280;6606;49.154;9.280;2023-04-27T14:01:09;99658.31;;;21.04;34.14
13080;BME280;6606;49.154;9.280;2023-04-27T14:03:51;99660.97;;;21.14;34.19
13080;BME280;6606;49.154;9.280;2023-04-27T14:06:32;99672.19;;;21.38;33.87
13080;BME280;6606;49.154;9.280;2023-04-27T14:09:14;99659.22;;;21.51;33.57
13080;BME280;6606;49.154;9.280;2023-04-27T14:11:57;99667.06;;;21.25;32.75
13080;BME280;6606;49.154;9.280;2023-04-27T14:14:40;99656.31;;;21.06;34.05
13080;BME280;6606;49.154;9.280;2023-04-27T14:17:21;99656.22;;;21.35;34.58
13080;BME280;6606;49.154;9.280;2023-04-27T14:20:04;99663.16;;;21.85;35.83
13080;BME280;6606;49.154;9.280;2023-04-27T14:22:48;99650.94;;;21.53;35.49
13080;BME280;6606;49.154;9.280;2023-04-27T14:25:30;99669.34;;;21.01;35.31
13080;BME280;6606;49.154;9.280;2023-04-27T14:28:15;99667.25;;;20.85;36.00
13080;BME280;6606;49.154;9.280;2023-04-27T14:30:56;99670.31;;;21.29;35.36
13080;BME280;6606;49.154;9.280;2023-04-27T14:33:38;99660.25;;;21.41;34.27
13080;BME280;6606;49.154;9.280;2023-04-27T14:36:20;99661.97;;;21.13;35.26
13080;BME280;6606;49.154;9.280;2023-04-27T14:39:02;99658.56;;;21.11;36.98
13080;BME280;6606;49.154;9.280;2023-04-27T14:41:45;99658.88;;;21.07;37.33
13080;BME280;6606;49.154;9.280;2023-04-27T14:44:28;99658.81;;;21.27;34.50
13080;BME280;6606;49.154;9.280;2023-04-27T14:47:14;99663.38;;;21.17;33.62
13080;BME280;6606;49.154;9.280;2023-04-27T14:50:04;99663.78;;;21.41;34.25
13080;BME280;6606;49.154;9.280;2023-04-27T14:52:46;99657.75;;;21.57;32.55
13080;BME280;6606;49.154;9.280;2023-04-27T14:55:28;99664.22;;;21.74;34.12
13080;BME280;6606;49.154;9.280;2023-04-27T14:58:11;99668.97;;;21.62;33.41
13080;BME280;6606;49.154;9.280;2023-04-27T15:00:54;99672.97;;;22.13;35.34
13080;BME280;6606;49.154;9.280;2023-04-27T15:03:36;99658.44;;;22.24;34.46
13080;BME280;6606;49.154;9.280;2023-04-27T15:06:17;99670.34;;;22.49;33.36
13080;BME280;6606;49.154;9.280;2023-04-27T15:09:01;99665.47;;;22.53;32.56
13080;BME280;6606;49.154;9.280;2023-04-27T15:11:44;99659.28;;;22.43;32.81
13080;BME280;6606;49.154;9.280;2023-04-27T15:14:26;99664.91;;;21.76;33.32
13080;BME280;6606;49.154;9.280;2023-04-27T15:17:09;99662.59;;;21.54;33.88
13080;BME280;6606;49.154;9.280;2023-04-27T15:19:53;99666.91;;;21.27;35.11
13080;BME280;6606;49.154;9.280;2023-04-27T15:22:37;99664.06;;;21.28;34.68
13080;BME280;6606;49.154;9.280;2023-04-27T15:25:19;99655.09;;;21.47;35.05
13080;BME280;6606;49.154;9.280;2023-04-27T15:28:01;99662.81;;;21.23;35.36
13080;BME280;6606;49.154;9.280;2023-04-27T15:30:43;99654.31;;;21.18;34.32
13080;BME280;6606;49.154;9.280;2023-04-27T15:33:26;99651.66;;;21.55;33.83
13080;BME280;6606;49.154;9.280;2023-04-27T15:36:08;99651.53;;;21.57;34.36
13080;BME280;6606;49.154;9.280;2023-04-27T15:38:53;99658.09;;;21.72;34.83
13080;BME280;6606;49.154;9.280;2023-04-27T15:41:35;99649.56;;;21.49;35.47
13080;BME280;6606;49.154;9.280;2023-04-27T15:44:17;99644.91;;;21.22;36.70
13080;BME280;6606;49.154;9.280;2023-04-27T15:50:37;99645.81;;;20.35;36.09
13080;BME280;6606;49.154;9.280;2023-04-27T15:53:19;99647.53;;;20.16;38.50
13080;BME280;6606;49.154;9.280;2023-04-27T15:56:01;99644.00;;;19.75;38.07